Time;durP1;ratioP1;P1;durP2;ratioP2;P2;SDS_P1;SDS_P2;PMS_P1;PMS_P2;Temp;Humidity;BMP_temperature;BMP_pressure;BME280_temperature;BME280_humidity;BME280_pressure;Samples;Min_cycle;Max_cycle;Signal;HPM_P1;HPM_P2
2022/06/20 00:00:33;;;;;;;;;;;23.30;93.00;;;;;;4952203;29;19965;-71
2022/06/20 00:03:05;;;;;;;;;;;23.30;93.20;;;;;;4969575;28;19929;-71
2022/06/20 00:05:37;;;;;;;;;;;23.30;93.10;;;;;;4951879;29;20032;-71
2022/06/20 00:08:10;;;;;;;;;;;23.20;93.20;;;;;;4954413;28;19929;-71
2022/06/20 00:10:42;;;;;;;;;;;23.20;93.20;;;;;;4954940;28;19923;-71
2022/06/20 00:13:17;;;;;;;;;;;23.10;93.30;;;;;;4953759;29;19928;-71
2022/06/20 00:15:50;;;;;;;;;;;23.00;93.50;;;;;;4950811;29;19922;-71
2022/06/20 00:18:22;;;;;;;;;;;22.90;93.40;;;;;;4954231;28;20542;-71
2022/06/20 00:20:54;;;;;;;;;;;22.90;93.70;;;;;;4954994;29;20022;-70
2022/06/20 00:23:25;;;;;;;;;;;22.80;93.90;;;;;;4970279;28;20013;-70
2022/06/20 00:25:57;;;;;;;;;;;22.80;94.20;;;;;;4954334;28;19922;-70
2022/06/20 00:28:28;;;;;;;;;;;22.70;94.50;;;;;;4966794;28;19929;-70
2022/06/20 00:31:00;;;;;;;;;;;22.70;94.60;;;;;;4958510;28;19934;-70
2022/06/20 00:33:32;;;;;;;;;;;22.70;94.50;;;;;;4954904;28;19922;-70
2022/06/20 00:36:04;;;;;;;;;;;22.60;94.30;;;;;;4953783;28;19993;-70
2022/06/20 00:38:35;;;;;;;;;;;22.70;94.40;;;;;;4972418;28;19922;-70
2022/06/20 00:41:09;;;;;;;;;;;22.60;94.60;;;;;;4955576;28;19922;-70
2022/06/20 00:43:43;;;;;;;;;;;22.60;94.70;;;;;;4954987;28;19922;-70
2022/06/20 00:46:20;;;;;;;;;;;22.60;95.00;;;;;;4968456;28;19922;-70
2022/06/20 00:48:50;;;;;;;;;;;22.50;95.50;;;;;;4961438;28;19929;-70
2022/06/20 00:51:34;;;;;;;;;;;22.40;96.00;;;;;;4955265;28;19922;-70
2022/06/20 00:54:08;;;;;;;;;;;22.30;96.30;;;;;;4954875;28;20275;-70
2022/06/20 00:56:43;;;;;;;;;;;22.30;96.50;;;;;;4969159;28;19945;-70
2022/06/20 00:59:17;;;;;;;;;;;22.30;96.60;;;;;;4969020;28;20013;-70
2022/06/20 01:01:50;;;;;;;;;;;22.30;96.80;;;;;;4954343;28;19922;-70
2022/06/20 01:04:40;;;;;;;;;;;22.30;97.00;;;;;;4968923;28;20401;-70
2022/06/20 01:07:16;;;;;;;;;;;22.20;97.00;;;;;;4980704;28;19923;-71
2022/06/20 01:09:50;;;;;;;;;;;22.20;97.10;;;;;;4954311;28;19929;-71
2022/06/20 01:12:23;;;;;;;;;;;22.10;97.20;;;;;;4954358;28;19931;-70
2022/06/20 01:14:55;;;;;;;;;;;22.10;97.60;;;;;;4953861;28;19929;-70
2022/06/20 01:17:32;;;;;;;;;;;22.10;97.40;;;;;;4953543;28;20604;-70
2022/06/20 01:20:17;;;;;;;;;;;22.10;97.70;;;;;;4954118;28;20550;-70
2022/06/20 01:22:55;;;;;;;;;;;22.00;97.80;;;;;;4968152;28;19922;-70
2022/06/20 01:25:39;;;;;;;;;;;22.00;98.10;;;;;;4934866;29;19957;-70
2022/06/20 01:28:12;;;;;;;;;;;21.90;98.20;;;;;;4953517;29;20022;-70
2022/06/20 01:30:44;;;;;;;;;;;21.80;98.40;;;;;;4953994;28;19933;-70
2022/06/20 01:33:18;;;;;;;;;;;21.80;98.40;;;;;;4968593;28;19930;-70
2022/06/20 01:38:42;;;;;;;;;;;21.80;97.80;;;;;;4967157;28;19929;-70
2022/06/20 01:44:04;;;;;;;;;;;22.00;96.70;;;;;;4934242;29;19926;-70
2022/06/20 01:46:36;;;;;;;;;;;22.10;96.30;;;;;;4956805;28;19944;-70
2022/06/20 01:49:13;;;;;;;;;;;22.20;96.20;;;;;;4934727;29;19923;-70
2022/06/20 01:51:58;;;;;;;;;;;22.20;96.30;;;;;;4934698;29;19923;-70
2022/06/20 01:54:31;;;;;;;;;;;22.30;95.90;;;;;;4946470;29;19922;-70
2022/06/20 01:57:04;;;;;;;;;;;22.30;96.30;;;;;;4952358;28;19922;-71
2022/06/20 01:59:38;;;;;;;;;;;22.30;96.80;;;;;;4953478;28;20030;-70
2022/06/20 02:02:10;;;;;;;;;;;22.30;97.30;;;;;;4968570;28;20013;-70
2022/06/20 02:04:42;;;;;;;;;;;22.30;97.80;;;;;;4953388;28;20392;-70
2022/06/20 02:07:13;;;;;;;;;;;22.30;98.00;;;;;;4941754;28;19923;-70
2022/06/20 02:09:45;;;;;;;;;;;22.30;98.10;;;;;;4946942;29;20318;-70
2022/06/20 02:12:18;;;;;;;;;;;22.20;98.30;;;;;;4967785;28;20375;-70
2022/06/20 02:14:51;;;;;;;;;;;22.20;98.90;;;;;;4967880;28;19929;-70
2022/06/20 02:17:25;;;;;;;;;;;22.00;99.80;;;;;;4952592;28;19922;-70
2022/06/20 02:19:59;;;;;;;;;;;21.90;99.90;;;;;;4959775;28;19922;-70
2022/06/20 02:22:30;;;;;;;;;;;21.80;99.90;;;;;;4968269;28;19922;-70
2022/06/20 02:25:05;;;;;;;;;;;21.80;99.90;;;;;;4953172;28;20314;-70
2022/06/20 02:27:40;;;;;;;;;;;21.70;99.90;;;;;;4951873;28;19926;-70
2022/06/20 02:30:12;;;;;;;;;;;21.70;99.90;;;;;;4933368;29;20450;-70
2022/06/20 02:32:45;;;;;;;;;;;21.70;99.90;;;;;;4942495;29;19926;-70
2022/06/20 02:35:18;;;;;;;;;;;21.70;99.90;;;;;;4967210;28;19930;-71
2022/06/20 02:37:50;;;;;;;;;;;21.60;99.90;;;;;;4934601;28;20382;-70
2022/06/20 02:40:24;;;;;;;;;;;21.50;99.90;;;;;;4963137;28;19930;-70
2022/06/20 02:42:59;;;;;;;;;;;21.40;99.90;;;;;;4968690;28;20291;-70
2022/06/20 02:45:32;;;;;;;;;;;21.40;99.90;;;;;;4955157;29;19922;-70
2022/06/20 02:48:02;;;;;;;;;;;21.30;99.90;;;;;;4960523;28;19966;-70
2022/06/20 02:50:36;;;;;;;;;;;21.30;99.90;;;;;;4967046;28;19958;-70
2022/06/20 02:53:12;;;;;;;;;;;21.40;99.90;;;;;;4954817;29;19922;-70
2022/06/20 02:55:44;;;;;;;;;;;21.40;99.90;;;;;;4955801;28;20310;-70
2022/06/20 02:58:19;;;;;;;;;;;21.40;99.90;;;;;;4967584;28;19923;-71
2022/06/20 03:00:54;;;;;;;;;;;21.40;99.90;;;;;;4953022;29;19923;-70
2022/06/20 03:03:36;;;;;;;;;;;21.40;99.90;;;;;;4956454;28;19970;-70
2022/06/20 03:06:10;;;;;;;;;;;21.40;99.90;;;;;;4969917;28;19977;-70
2022/06/20 03:08:42;;;;;;;;;;;21.50;99.90;;;;;;4971243;28;19929;-70
2022/06/20 03:11:14;;;;;;;;;;;21.50;99.90;;;;;;4956706;28;19926;-70
2022/06/20 03:13:46;;;;;;;;;;;21.70;99.90;;;;;;4970676;28;20033;-70
2022/06/20 03:16:18;;;;;;;;;;;21.70;99.90;;;;;;4970503;28;20006;-70
2022/06/20 03:18:50;;;;;;;;;;;21.70;99.90;;;;;;4955299;28;20325;-70
2022/06/20 03:21:24;;;;;;;;;;;21.60;99.90;;;;;;4959532;28;20017;-70
2022/06/20 03:23:56;;;;;;;;;;;21.60;99.90;;;;;;4970532;28;19933;-70
2022/06/20 03:26:28;;;;;;;;;;;21.60;99.90;;;;;;4970036;28;19923;-70
2022/06/20 03:29:00;;;;;;;;;;;21.50;99.90;;;;;;4955340;28;19922;-70
2022/06/20 03:31:32;;;;;;;;;;;21.50;99.90;;;;;;4956513;28;19974;-70
2022/06/20 03:34:03;;;;;;;;;;;21.50;99.90;;;;;;4955481;28;19926;-70
2022/06/20 03:36:30;;;;;;;;;;;21.40;99.90;;;;;;4955270;28;20013;-70
2022/06/20 03:39:04;;;;;;;;;;;21.40;99.90;;;;;;4956470;28;19965;-70
2022/06/20 03:41:36;;;;;;;;;;;21.40;99.90;;;;;;4956404;28;19992;-70
2022/06/20 03:44:14;;;;;;;;;;;21.50;99.90;;;;;;4956027;28;19922;-70
2022/06/20 03:46:53;;;;;;;;;;;21.50;99.90;;;;;;4959253;28;19984;-70
2022/06/20 03:49:28;;;;;;;;;;;21.60;99.90;;;;;;4965276;28;19930;-70
2022/06/20 03:52:02;;;;;;;;;;;21.90;99.10;;;;;;4951288;29;20302;-70
2022/06/20 03:54:38;;;;;;;;;;;22.10;98.10;;;;;;4967522;28;19922;-70
2022/06/20 03:57:18;;;;;;;;;;;22.30;97.70;;;;;;4960864;28;19923;-70
2022/06/20 04:00:11;;;;;;;;;;;22.50;97.10;;;;;;4944870;29;20288;-70
2022/06/20 04:02:43;;;;;;;;;;;22.60;98.00;;;;;;4935841;29;19927;-69
2022/06/20 04:05:33;;;;;;;;;;;22.60;98.30;;;;;;4936853;29;20295;-70
2022/06/20 04:08:06;;;;;;;;;;;22.60;98.10;;;;;;4953759;29;20021;-70
2022/06/20 04:10:58;;;;;;;;;;;22.60;97.80;;;;;;4953486;28;19929;-69
2022/06/20 04:13:59;;;;;;;;;;;22.60;97.60;;;;;;4936438;29;19923;-69
2022/06/20 04:16:34;;;;;;;;;;;22.70;97.00;;;;;;4939102;29;19923;-69
2022/06/20 04:19:10;;;;;;;;;;;22.80;96.30;;;;;;4970497;28;19933;-69
2022/06/20 04:21:37;;;;;;;;;;;22.90;95.80;;;;;;4955556;28;19922;-69
2022/06/20 04:24:10;;;;;;;;;;;23.00;95.90;;;;;;4955507;28;19969;-69
2022/06/20 04:26:42;;;;;;;;;;;23.10;95.50;;;;;;4954222;28;19923;-72
2022/06/20 04:29:17;;;;;;;;;;;23.20;95.30;;;;;;4967816;28;19928;-71
2022/06/20 04:31:52;;;;;;;;;;;23.30;95.50;;;;;;4948180;29;19970;-72
2022/06/20 04:34:26;;;;;;;;;;;23.30;95.50;;;;;;4954810;28;20309;-71
2022/06/20 04:36:56;;;;;;;;;;;23.30;95.20;;;;;;4953816;28;19929;-72
2022/06/20 04:39:27;;;;;;;;;;;23.40;95.10;;;;;;4955068;28;19923;-72
2022/06/20 04:42:20;;;;;;;;;;;23.40;95.10;;;;;;4965226;28;20307;-72
2022/06/20 04:44:58;;;;;;;;;;;23.40;95.00;;;;;;4946296;29;19929;-70
2022/06/20 04:47:30;;;;;;;;;;;23.40;95.30;;;;;;4968786;28;19926;-71
2022/06/20 04:50:02;;;;;;;;;;;23.50;95.40;;;;;;4953076;28;19923;-71
2022/06/20 04:52:34;;;;;;;;;;;23.60;94.80;;;;;;4952761;28;20003;-71
2022/06/20 04:55:06;;;;;;;;;;;23.60;94.70;;;;;;4955361;28;19922;-71
2022/06/20 04:57:37;;;;;;;;;;;23.80;94.80;;;;;;4950597;29;19929;-71
2022/06/20 05:00:19;;;;;;;;;;;23.80;94.40;;;;;;4952198;28;19926;-71
2022/06/20 05:02:51;;;;;;;;;;;23.80;94.60;;;;;;4962748;28;19951;-72
2022/06/20 05:05:25;;;;;;;;;;;23.80;94.70;;;;;;4953490;28;19929;-71
2022/06/20 05:07:59;;;;;;;;;;;23.80;94.70;;;;;;4953795;29;19922;-72
2022/06/20 05:10:34;;;;;;;;;;;23.80;94.60;;;;;;4954508;28;19932;-71
2022/06/20 05:13:12;;;;;;;;;;;23.70;94.60;;;;;;4958655;28;19926;-71
2022/06/20 05:15:46;;;;;;;;;;;23.70;94.40;;;;;;4949793;28;19937;-71
2022/06/20 05:18:23;;;;;;;;;;;23.70;94.50;;;;;;4954510;28;20009;-72
2022/06/20 05:21:01;;;;;;;;;;;23.60;94.70;;;;;;4955878;28;20372;-71
2022/06/20 05:23:36;;;;;;;;;;;23.60;94.40;;;;;;4936762;29;19929;-71
2022/06/20 05:26:10;;;;;;;;;;;23.60;94.50;;;;;;4949993;28;20016;-71
2022/06/20 05:28:42;;;;;;;;;;;23.60;94.60;;;;;;4954478;28;20298;-71
2022/06/20 05:31:16;;;;;;;;;;;23.50;94.50;;;;;;4969405;28;20543;-69
2022/06/20 05:33:57;;;;;;;;;;;23.50;94.40;;;;;;4953969;28;19922;-69
2022/06/20 05:36:32;;;;;;;;;;;23.40;94.50;;;;;;4947398;29;20402;-69
2022/06/20 05:39:07;;;;;;;;;;;23.40;94.70;;;;;;4954269;28;19929;-69
2022/06/20 05:41:44;;;;;;;;;;;23.40;93.80;;;;;;4954370;28;19922;-69
2022/06/20 05:44:16;;;;;;;;;;;23.40;94.50;;;;;;4959086;28;19922;-69
2022/06/20 05:46:50;;;;;;;;;;;23.40;94.60;;;;;;4945501;29;20016;-69
2022/06/20 05:49:27;;;;;;;;;;;23.40;94.90;;;;;;4954116;28;19922;-68
2022/06/20 05:52:00;;;;;;;;;;;23.40;95.30;;;;;;4966038;28;19930;-69
2022/06/20 05:54:37;;;;;;;;;;;23.40;95.20;;;;;;4941364;29;19929;-69
2022/06/20 05:57:11;;;;;;;;;;;23.40;95.20;;;;;;4947654;29;19930;-69
2022/06/20 05:59:42;;;;;;;;;;;23.40;94.90;;;;;;4952462;28;19922;-69
2022/06/20 06:02:35;;;;;;;;;;;23.40;94.90;;;;;;4951882;28;20386;-71
2022/06/20 06:05:13;;;;;;;;;;;23.50;94.60;;;;;;4949971;29;19930;-72
2022/06/20 06:07:47;;;;;;;;;;;23.60;94.10;;;;;;4950768;29;19930;-71
2022/06/20 06:10:30;;;;;;;;;;;23.80;93.90;;;;;;4951878;28;19922;-69
2022/06/20 06:13:14;;;;;;;;;;;24.00;94.00;;;;;;4960913;28;19922;-69
2022/06/20 06:18:49;;;;;;;;;;;24.20;93.30;;;;;;4957483;28;19972;-69
2022/06/20 06:21:21;;;;;;;;;;;24.40;93.20;;;;;;4954719;29;19932;-69
2022/06/20 06:23:53;;;;;;;;;;;24.40;93.20;;;;;;4956852;28;20293;-69
2022/06/20 06:26:25;;;;;;;;;;;24.50;93.10;;;;;;4956165;28;19929;-71
2022/06/20 06:28:57;;;;;;;;;;;24.50;93.00;;;;;;4963200;28;19926;-69
2022/06/20 06:31:31;;;;;;;;;;;24.60;93.30;;;;;;4956940;28;20399;-70
2022/06/20 06:34:09;;;;;;;;;;;24.70;93.20;;;;;;4956819;28;19923;-69
2022/06/20 06:36:44;;;;;;;;;;;24.70;93.30;;;;;;4950075;28;19953;-70
2022/06/20 06:39:19;;;;;;;;;;;24.80;93.20;;;;;;4966665;28;19928;-69
2022/06/20 06:41:55;;;;;;;;;;;24.90;93.40;;;;;;4967279;28;19930;-69
2022/06/20 06:44:27;;;;;;;;;;;24.90;93.00;;;;;;4969127;28;20013;-70
2022/06/20 06:46:54;;;;;;;;;;;25.00;93.30;;;;;;4953832;28;19922;-69
2022/06/20 06:49:42;;;;;;;;;;;25.10;93.40;;;;;;4955614;28;20031;-71
2022/06/20 06:52:17;;;;;;;;;;;25.20;93.40;;;;;;4969051;28;20295;-69
2022/06/20 06:54:56;;;;;;;;;;;25.20;92.80;;;;;;4969432;28;20017;-69
2022/06/20 06:57:40;;;;;;;;;;;25.20;93.30;;;;;;4967978;28;20390;-70
2022/06/20 07:00:20;;;;;;;;;;;25.30;93.20;;;;;;4969824;28;19948;-69
2022/06/20 07:02:55;;;;;;;;;;;25.40;92.30;;;;;;4954862;28;19926;-69
2022/06/20 07:05:26;;;;;;;;;;;25.50;91.50;;;;;;4953135;28;20325;-70
2022/06/20 07:08:04;;;;;;;;;;;25.60;91.40;;;;;;4969459;28;19945;-69
2022/06/20 07:10:45;;;;;;;;;;;25.60;91.60;;;;;;4968816;28;19923;-69
2022/06/20 07:13:30;;;;;;;;;;;25.60;91.10;;;;;;4955921;28;19934;-69
2022/06/20 07:15:58;;;;;;;;;;;25.70;90.00;;;;;;4953078;29;19932;-69
2022/06/20 07:18:38;;;;;;;;;;;25.80;90.20;;;;;;4956327;28;19926;-69
2022/06/20 07:21:12;;;;;;;;;;;25.90;90.40;;;;;;4945385;29;20375;-69
2022/06/20 07:23:45;;;;;;;;;;;26.00;89.60;;;;;;4955273;28;19992;-69
2022/06/20 07:26:18;;;;;;;;;;;26.00;86.40;;;;;;4955263;28;19922;-69
2022/06/20 07:28:53;;;;;;;;;;;26.10;86.40;;;;;;4955936;28;19922;-69
2022/06/20 07:31:31;;;;;;;;;;;26.20;86.60;;;;;;4965488;28;20009;-69
2022/06/20 07:34:06;;;;;;;;;;;26.10;85.90;;;;;;4955733;28;20005;-69
2022/06/20 07:36:40;;;;;;;;;;;26.00;87.00;;;;;;4954995;29;19945;-69
2022/06/20 07:39:21;;;;;;;;;;;25.90;86.10;;;;;;4980350;28;19922;-69
2022/06/20 07:41:54;;;;;;;;;;;25.80;86.40;;;;;;4936888;29;19923;-69
2022/06/20 07:44:30;;;;;;;;;;;25.80;85.90;;;;;;4940025;29;19922;-69
2022/06/20 07:47:24;;;;;;;;;;;25.90;86.80;;;;;;4950223;29;20318;-69
2022/06/20 07:49:57;;;;;;;;;;;26.00;87.90;;;;;;4945332;29;19922;-69
2022/06/20 07:52:32;;;;;;;;;;;26.20;84.20;;;;;;4954721;28;20354;-70
2022/06/20 07:55:07;;;;;;;;;;;26.30;83.90;;;;;;4953771;28;19922;-69
2022/06/20 07:57:41;;;;;;;;;;;26.30;82.80;;;;;;4952923;28;19923;-69
2022/06/20 08:00:15;;;;;;;;;;;26.40;82.60;;;;;;4954079;28;19926;-69
2022/06/20 08:03:07;;;;;;;;;;;26.50;81.80;;;;;;4951618;28;19945;-70
2022/06/20 08:05:44;;;;;;;;;;;26.60;83.00;;;;;;4950935;29;19928;-70
2022/06/20 08:08:22;;;;;;;;;;;26.70;81.60;;;;;;4967467;28;19926;-69
2022/06/20 08:10:59;;;;;;;;;;;26.90;83.60;;;;;;4953191;29;20309;-68
2022/06/20 08:13:36;;;;;;;;;;;26.90;79.70;;;;;;4967692;28;19992;-69
2022/06/20 08:16:14;;;;;;;;;;;26.90;81.10;;;;;;4966545;28;19923;-69
2022/06/20 08:18:45;;;;;;;;;;;26.90;79.20;;;;;;4954449;28;20563;-70
2022/06/20 08:21:43;;;;;;;;;;;26.90;80.10;;;;;;4965518;28;19932;-70
2022/06/20 08:24:19;;;;;;;;;;;26.90;80.40;;;;;;4952505;28;19949;-70
2022/06/20 08:26:50;;;;;;;;;;;26.80;80.00;;;;;;4947056;28;20370;-70
2022/06/20 08:29:52;;;;;;;;;;;26.70;81.90;;;;;;4951943;29;19923;-69
2022/06/20 08:32:24;;;;;;;;;;;26.60;80.50;;;;;;4944486;29;20025;-68
2022/06/20 08:34:56;;;;;;;;;;;26.50;80.90;;;;;;4952083;28;19929;-69
2022/06/20 08:37:30;;;;;;;;;;;26.70;80.70;;;;;;4952804;28;19932;-69
2022/06/20 08:40:24;;;;;;;;;;;26.90;81.50;;;;;;4965431;28;19923;-69
2022/06/20 08:43:04;;;;;;;;;;;27.10;82.60;;;;;;4952987;29;20403;-69
2022/06/20 08:45:48;;;;;;;;;;;27.10;81.90;;;;;;4964444;28;19974;-68
2022/06/20 08:48:29;;;;;;;;;;;27.20;81.20;;;;;;4953336;29;19923;-68
2022/06/20 08:51:08;;;;;;;;;;;27.10;82.10;;;;;;4953540;28;19978;-68
2022/06/20 08:53:37;;;;;;;;;;;26.90;82.10;;;;;;4964350;28;19930;-69
2022/06/20 08:56:18;;;;;;;;;;;27.00;81.40;;;;;;4944079;28;20379;-69
2022/06/20 08:58:56;;;;;;;;;;;27.00;81.40;;;;;;4953196;29;19932;-69
2022/06/20 09:01:39;;;;;;;;;;;26.90;81.60;;;;;;4952251;29;19969;-68
2022/06/20 09:04:29;;;;;;;;;;;27.00;81.10;;;;;;4953096;29;19933;-69
2022/06/20 09:07:03;;;;;;;;;;;27.00;81.90;;;;;;4951976;29;19929;-69
2022/06/20 09:09:38;;;;;;;;;;;26.80;80.60;;;;;;4953516;29;19969;-69
2022/06/20 09:12:12;;;;;;;;;;;26.70;81.60;;;;;;4951472;29;19922;-69
2022/06/20 09:14:52;;;;;;;;;;;26.70;80.90;;;;;;4937108;28;19933;-70
2022/06/20 09:17:24;;;;;;;;;;;26.60;79.90;;;;;;4963649;28;19926;-69
2022/06/20 09:20:07;;;;;;;;;;;26.60;79.90;;;;;;4938963;29;19933;-68
2022/06/20 09:22:42;;;;;;;;;;;26.60;79.70;;;;;;4967088;28;19926;-69
2022/06/20 09:25:17;;;;;;;;;;;26.30;79.70;;;;;;4960105;28;19933;-68
2022/06/20 09:27:54;;;;;;;;;;;26.20;80.60;;;;;;4953059;29;19926;-69
2022/06/20 09:30:40;;;;;;;;;;;26.10;80.50;;;;;;4953480;28;19926;-69
2022/06/20 09:33:18;;;;;;;;;;;26.10;82.60;;;;;;4950729;29;19951;-69
2022/06/20 09:36:09;;;;;;;;;;;26.10;80.60;;;;;;4966256;28;19933;-69
2022/06/20 09:38:52;;;;;;;;;;;26.20;81.80;;;;;;4964549;28;19926;-68
2022/06/20 09:41:26;;;;;;;;;;;26.50;82.90;;;;;;4950881;29;19922;-68
2022/06/20 09:44:04;;;;;;;;;;;26.80;79.80;;;;;;4951651;29;19930;-69
2022/06/20 09:46:42;;;;;;;;;;;27.20;78.90;;;;;;4948559;28;19922;-70
2022/06/20 09:49:25;;;;;;;;;;;27.30;77.70;;;;;;4962101;28;19926;-69
2022/06/20 09:51:56;;;;;;;;;;;27.40;74.50;;;;;;4964733;28;19923;-70
2022/06/20 09:54:28;;;;;;;;;;;27.40;74.80;;;;;;4961337;28;19933;-70
2022/06/20 09:57:15;;;;;;;;;;;27.40;76.60;;;;;;4951432;28;19937;-69
2022/06/20 09:59:47;;;;;;;;;;;27.40;76.90;;;;;;4951127;29;19954;-70
2022/06/20 10:02:26;;;;;;;;;;;27.50;76.20;;;;;;4952737;28;19926;-70
2022/06/20 10:05:21;;;;;;;;;;;27.60;75.90;;;;;;4951041;28;19929;-70
2022/06/20 10:07:54;;;;;;;;;;;27.60;74.80;;;;;;4951775;28;20379;-70
2022/06/20 10:10:38;;;;;;;;;;;27.50;73.40;;;;;;4949819;29;19926;-70
2022/06/20 10:13:48;;;;;;;;;;;27.60;73.10;;;;;;4964893;28;19926;-69
2022/06/20 10:16:25;;;;;;;;;;;27.60;71.50;;;;;;4915960;29;19923;-70
2022/06/20 10:19:13;;;;;;;;;;;27.70;73.90;;;;;;4917003;29;19923;-70
2022/06/20 10:21:45;;;;;;;;;;;27.90;73.00;;;;;;4942553;28;20295;-70
2022/06/20 10:24:16;;;;;;;;;;;28.20;75.00;;;;;;4962731;28;19934;-70
2022/06/20 10:27:06;;;;;;;;;;;28.40;71.40;;;;;;4955395;28;19937;-70
2022/06/20 10:29:47;;;;;;;;;;;28.40;70.90;;;;;;4952280;28;20667;-70
2022/06/20 10:32:19;;;;;;;;;;;28.50;69.40;;;;;;4952302;28;19923;-70
2022/06/20 10:34:54;;;;;;;;;;;28.40;69.40;;;;;;4950152;29;20028;-70
2022/06/20 10:37:25;;;;;;;;;;;28.40;69.70;;;;;;4954782;28;19934;-70
2022/06/20 10:40:12;;;;;;;;;;;28.30;70.00;;;;;;4950936;29;19922;-70
2022/06/20 10:42:54;;;;;;;;;;;28.30;69.20;;;;;;4952859;28;19932;-70
2022/06/20 10:45:44;;;;;;;;;;;28.30;70.00;;;;;;4951468;29;19929;-68
2022/06/20 10:48:16;;;;;;;;;;;28.30;72.10;;;;;;4951526;28;19933;-70
2022/06/20 10:50:47;;;;;;;;;;;28.50;71.10;;;;;;4951419;29;19926;-70
2022/06/20 10:53:34;;;;;;;;;;;28.60;72.80;;;;;;4949651;29;19926;-70
2022/06/20 10:56:24;;;;;;;;;;;28.80;71.60;;;;;;4949086;28;19923;-69
2022/06/20 10:59:05;;;;;;;;;;;28.70;71.70;;;;;;4953110;28;19922;-69
2022/06/20 11:01:37;;;;;;;;;;;28.70;71.90;;;;;;4953046;28;20379;-70
2022/06/20 11:04:15;;;;;;;;;;;28.90;73.00;;;;;;4961083;28;19946;-69
2022/06/20 11:07:01;;;;;;;;;;;29.00;71.20;;;;;;4954540;28;19926;-70
2022/06/20 11:09:46;;;;;;;;;;;29.10;70.90;;;;;;4955840;28;19932;-70
2022/06/20 11:12:33;;;;;;;;;;;29.10;70.90;;;;;;4955688;29;19981;-70
2022/06/20 11:15:13;;;;;;;;;;;29.30;71.40;;;;;;4969859;28;20029;-70
2022/06/20 11:17:51;;;;;;;;;;;29.30;70.70;;;;;;4953373;28;19922;-70
2022/06/20 11:20:26;;;;;;;;;;;29.20;70.50;;;;;;4953210;29;19929;-69
2022/06/20 11:23:07;;;;;;;;;;;29.50;72.10;;;;;;4966526;28;19927;-70
2022/06/20 11:25:45;;;;;;;;;;;29.50;68.90;;;;;;4951111;29;19933;-70
2022/06/20 11:28:49;;;;;;;;;;;29.40;68.80;;;;;;4969789;28;19929;-70
2022/06/20 11:31:16;;;;;;;;;;;29.50;69.70;;;;;;4926000;29;19926;-69
2022/06/20 11:34:04;;;;;;;;;;;29.50;69.00;;;;;;4962526;28;19929;-70
2022/06/20 11:36:39;;;;;;;;;;;29.30;68.70;;;;;;4949985;28;19934;-70
2022/06/20 11:39:30;;;;;;;;;;;29.10;69.50;;;;;;4954043;28;19926;-69
2022/06/20 11:42:08;;;;;;;;;;;28.90;69.70;;;;;;4966537;28;19922;-70
2022/06/20 11:44:39;;;;;;;;;;;29.00;71.10;;;;;;4952658;28;19930;-70
2022/06/20 11:47:11;;;;;;;;;;;29.10;70.20;;;;;;4947451;28;19922;-70
2022/06/20 11:50:00;;;;;;;;;;;29.10;69.80;;;;;;4951629;29;19926;-70
2022/06/20 11:52:49;;;;;;;;;;;29.00;70.80;;;;;;4951787;29;19922;-70
2022/06/20 11:55:37;;;;;;;;;;;28.90;70.30;;;;;;4966204;28;19926;-69
2022/06/20 11:58:11;;;;;;;;;;;29.00;70.10;;;;;;4950292;29;20268;-69
2022/06/20 12:00:52;;;;;;;;;;;29.10;68.30;;;;;;4966174;28;19922;-69
2022/06/20 12:03:39;;;;;;;;;;;29.10;68.90;;;;;;4951710;29;19929;-69
2022/06/20 12:06:22;;;;;;;;;;;29.30;68.60;;;;;;4948486;28;19926;-69
2022/06/20 12:08:57;;;;;;;;;;;29.40;69.40;;;;;;4967483;28;19922;-70
2022/06/20 12:11:29;;;;;;;;;;;29.60;68.30;;;;;;4952248;28;20286;-70
2022/06/20 12:14:21;;;;;;;;;;;29.70;67.70;;;;;;4952317;28;19926;-69
2022/06/20 12:16:58;;;;;;;;;;;29.90;69.30;;;;;;4965460;28;19933;-70
2022/06/20 12:25:32;;;;;;;;;;;30.10;69.60;;;;;;4950658;29;19930;-68
2022/06/20 12:28:18;;;;;;;;;;;30.20;68.10;;;;;;4964461;28;19926;-70
2022/06/20 12:30:56;;;;;;;;;;;30.20;66.10;;;;;;4950760;29;19933;-69
2022/06/20 12:33:28;;;;;;;;;;;30.00;66.50;;;;;;4965798;28;19977;-70
2022/06/20 12:36:03;;;;;;;;;;;30.00;66.80;;;;;;4962625;28;19953;-70
2022/06/20 12:38:40;;;;;;;;;;;30.00;67.10;;;;;;4951693;28;19922;-70
2022/06/20 12:41:14;;;;;;;;;;;30.10;66.80;;;;;;4952075;28;20307;-69
2022/06/20 12:43:54;;;;;;;;;;;30.20;67.70;;;;;;4949952;29;19945;-69
2022/06/20 12:46:35;;;;;;;;;;;30.40;67.60;;;;;;4947925;29;19922;-69
2022/06/20 12:49:26;;;;;;;;;;;30.70;66.50;;;;;;4960161;28;19930;-69
2022/06/20 12:52:03;;;;;;;;;;;30.80;65.90;;;;;;4947938;28;19923;-69
2022/06/20 12:54:54;;;;;;;;;;;30.90;65.80;;;;;;4955623;28;19977;-69
2022/06/20 12:57:34;;;;;;;;;;;30.90;66.50;;;;;;4951628;28;19922;-69
2022/06/20 13:00:24;;;;;;;;;;;30.60;65.80;;;;;;4965139;28;19922;-69
2022/06/20 13:03:14;;;;;;;;;;;30.40;66.50;;;;;;4949054;29;19936;-69
2022/06/20 13:05:55;;;;;;;;;;;30.30;66.30;;;;;;4950129;29;19930;-69
2022/06/20 13:08:22;;;;;;;;;;;30.20;65.40;;;;;;4965981;28;19922;-68
2022/06/20 13:11:05;;;;;;;;;;;30.30;63.60;;;;;;4951523;29;19922;-69
2022/06/20 13:13:49;;;;;;;;;;;30.20;63.70;;;;;;4964385;28;19973;-70
2022/06/20 13:16:23;;;;;;;;;;;29.90;63.50;;;;;;4949742;29;20009;-68
2022/06/20 13:19:18;;;;;;;;;;;29.80;62.90;;;;;;4950452;29;19945;-69
2022/06/20 13:21:52;;;;;;;;;;;29.60;63.80;;;;;;4950190;28;19926;-69
2022/06/20 13:24:30;;;;;;;;;;;29.50;64.60;;;;;;4950037;28;20407;-70
2022/06/20 13:27:08;;;;;;;;;;;29.40;65.40;;;;;;4948561;29;20326;-70
2022/06/20 13:29:55;;;;;;;;;;;29.30;66.40;;;;;;4962462;28;19933;-70
2022/06/20 13:32:30;;;;;;;;;;;29.30;66.40;;;;;;4947938;29;20232;-70
2022/06/20 13:35:14;;;;;;;;;;;29.20;66.70;;;;;;4962750;28;19926;-71
2022/06/20 13:37:49;;;;;;;;;;;29.10;66.70;;;;;;4962141;28;19923;-70
2022/06/20 13:40:25;;;;;;;;;;;28.90;68.50;;;;;;4963843;28;20587;-69
2022/06/20 13:42:59;;;;;;;;;;;28.70;71.70;;;;;;4949350;28;19926;-71
2022/06/20 13:45:41;;;;;;;;;;;28.40;81.50;;;;;;4945878;29;19929;-70
2022/06/20 13:48:19;;;;;;;;;;;27.50;86.70;;;;;;4950434;29;19934;-70
2022/06/20 13:50:55;;;;;;;;;;;26.50;90.60;;;;;;4947520;28;19934;-71
2022/06/20 13:53:34;;;;;;;;;;;25.50;92.60;;;;;;4965249;28;20006;-70
2022/06/20 13:56:23;;;;;;;;;;;24.80;94.60;;;;;;4962546;28;19929;-70
2022/06/20 13:58:54;;;;;;;;;;;24.60;95.50;;;;;;4947424;29;20315;-71
2022/06/20 14:01:22;;;;;;;;;;;24.60;95.60;;;;;;4956159;28;19963;-70
2022/06/20 14:03:55;;;;;;;;;;;24.60;96.30;;;;;;4965263;28;19922;-68
2022/06/20 14:06:28;;;;;;;;;;;24.60;95.10;;;;;;4948278;29;19929;-70
2022/06/20 14:09:02;;;;;;;;;;;24.60;94.80;;;;;;4963202;28;20386;-71
2022/06/20 14:11:32;;;;;;;;;;;24.60;95.20;;;;;;4951324;29;19922;-70
2022/06/20 14:14:04;;;;;;;;;;;24.50;95.10;;;;;;4965188;28;19926;-70
2022/06/20 14:16:35;;;;;;;;;;;24.50;94.80;;;;;;4948368;28;20385;-70
2022/06/20 14:19:12;;;;;;;;;;;24.70;95.10;;;;;;4949307;29;19922;-68
2022/06/20 14:21:42;;;;;;;;;;;25.20;96.00;;;;;;4958733;28;19937;-70
2022/06/20 14:24:16;;;;;;;;;;;25.60;93.80;;;;;;4964086;28;19922;-70
2022/06/20 14:27:06;;;;;;;;;;;25.70;92.50;;;;;;4940717;28;20299;-70
2022/06/20 14:29:39;;;;;;;;;;;25.60;92.80;;;;;;4957865;28;19968;-69
2022/06/20 14:32:08;;;;;;;;;;;25.30;91.20;;;;;;4968874;28;19926;-69
2022/06/20 14:35:20;;;;;;;;;;;25.10;91.50;;;;;;4952182;28;20308;-70
2022/06/20 14:37:48;;;;;;;;;;;25.00;92.10;;;;;;4978459;28;19926;-69
2022/06/20 14:40:26;;;;;;;;;;;24.90;92.20;;;;;;4965887;28;19981;-70
2022/06/20 14:43:13;;;;;;;;;;;24.90;92.60;;;;;;4968107;28;19941;-70
2022/06/20 14:45:54;;;;;;;;;;;24.80;92.20;;;;;;4950584;29;19933;-70
2022/06/20 14:48:29;;;;;;;;;;;24.70;91.60;;;;;;4968647;28;20429;-70
2022/06/20 14:51:05;;;;;;;;;;;24.50;92.40;;;;;;4969234;28;19923;-71
2022/06/20 14:53:48;;;;;;;;;;;24.30;92.90;;;;;;4946113;29;19922;-70
2022/06/20 14:56:26;;;;;;;;;;;24.20;93.10;;;;;;4954459;29;19926;-71
2022/06/20 14:58:57;;;;;;;;;;;24.30;93.60;;;;;;4955673;29;19922;-70
2022/06/20 15:01:25;;;;;;;;;;;24.60;94.40;;;;;;4956571;28;19926;-70
2022/06/20 15:04:08;;;;;;;;;;;25.00;93.20;;;;;;4956538;28;19923;-70
2022/06/20 15:07:12;;;;;;;;;;;25.40;92.70;;;;;;4955719;28;20051;-70
2022/06/20 15:09:46;;;;;;;;;;;26.00;91.80;;;;;;4954277;28;19942;-70
2022/06/20 15:12:29;;;;;;;;;;;26.50;90.50;;;;;;4969198;28;19928;-69
2022/06/20 15:15:07;;;;;;;;;;;26.60;90.20;;;;;;4956253;28;19932;-70
2022/06/20 15:17:41;;;;;;;;;;;26.50;86.20;;;;;;4955370;28;19970;-69
2022/06/20 15:20:20;;;;;;;;;;;26.70;86.30;;;;;;4954508;29;19926;-70
2022/06/20 15:22:54;;;;;;;;;;;27.00;86.70;;;;;;4956497;28;19934;-69
2022/06/20 15:25:39;;;;;;;;;;;27.20;84.30;;;;;;4967302;28;19937;-70
2022/06/20 15:28:13;;;;;;;;;;;27.00;86.00;;;;;;4951452;29;19957;-69